This demonstration page uses our WeatherBlox Daily Observations layout. Learn more.

41.86663, -103.66717

Hourly Observations for January 16, 2021

Temp ( °F °C ) Dew Point ( °F °C ) Humidity (%) Winds ( mph kmh ) Pressure ( in mb ) Visibility ( mi km ) Precip ( " mm )
12:53 am 00:53 Mostly Cloudy 30 -1.1 15 -9.4 54 54 WNW 7 11 30 1016 10 16.0934 0 0
1:53 am 01:53 Cloudy 33 0.6 17 -8.3 52 52 W 12 19 30 1016 10 16.0934 0 0
2:53 am 02:53 Cloudy 34 1.1 23 -5 64 64 W 5 7 30 1016 10 16.0934 0 0
3:53 am 03:53 Cloudy 38 3.3 26 -3.3 62 62 WNW 13 20 30 1016 10 16.0934 0 0
4:53 am 04:53 Cloudy with Light Rain 39 3.9 32 0 76 76 WNW 16 26 30.01 1016 10 16.0934 0.01 0.254
5:53 am 05:53 Mostly Cloudy 38 3.3 31 -0.6 76 76 WNW 17 28 30.02 1017 10 16.0934 0.001 0.001
6:53 am 06:53 Clear 37 2.8 30 -1.1 76 76 WNW 17 28 30.02 1017 10 16.0934 0 0
7:53 am 07:53 Sunny 36 2.2 30 -1.1 79 79 WNW 16 26 30.06 1018 10 16.0934 0 0
8:53 am 08:53 Mostly Cloudy 39 3.9 29 -1.7 67 67 NW 20 31 30.1 1019 10 16.0934 0 0
9:53 am 09:53 Cloudy 41 5 23 -5 49 49 NNW 24 39 30.12 1020 10 16.0934 0 0
10:53 am 10:53 Cloudy 42 5.6 21 -6.1 43 43 NW 26 43 30.14 1021 10 16.0934 0 0
11:53 am 11:53 Partly Cloudy 43 6.1 20 -6.7 40 40 NW 29 46 30.11 1020 10 16.0934 0 0
12:53 pm 12:53 Cloudy 43 6.1 19 -7.2 38 38 NW 18 30 30.09 1019 10 16.0934 0 0
1:53 pm 13:53 Cloudy 42 5.6 18 -7.8 38 38 NW 20 31 30.09 1019 10 16.0934 0 0
2:53 pm 14:53 Cloudy 42 5.6 17 -8.3 36 36 NNW 25 41 30.09 1019 10 16.0934 0 0
3:53 pm 15:53 Cloudy 40 4.4 20 -6.7 45 45 NNW 15 24 30.09 1019 10 16.0934 0 0
4:53 pm 16:53 Partly Cloudy 37 2.8 20 -6.7 50 50 NNW 17 28 30.1 1019 10 16.0934 0 0
5:53 pm 17:53 Mostly Cloudy 36 2.2 22 -5.6 57 57 NW 17 28 30.1 1019 10 16.0934 0 0
6:53 pm 18:53 Mostly Cloudy 35 1.7 21 -6.1 57 57 WNW 14 22 30.12 1020 10 16.0934 0 0
7:53 pm 19:53 Mostly Cloudy 32 0 19 -7.2 59 59 NW 10 17 30.15 1021 10 16.0934 0 0
8:53 pm 20:53 Clear 29 -1.7 18 -7.8 63 63 NW 8 13 30.14 1021 10 16.0934 0 0
9:53 pm 21:53 Clear 26 -3.3 16 -8.9 66 66 NW 8 13 30.16 1021 10 16.0934 0 0
10:53 pm 22:53 Clear 23 -5 15 -9.4 72 72 NW 3 6 30.16 1021 10 16.0934 0 0
11:53 pm 23:53 Clear 22 -5.6 13 -10.6 68 68 NW 6 9 30.16 1021 10 16.0934 0 0

Powered by AerisWeather